Tenakee Springs, Alaska
Current Conditions -  °F | °C
As of 3:56 AM on Tuesday 21 Oct 2014 (Local Time) from PAOH Reporting Station
Broken Clouds Broken Clouds  
Wind Chill: 39°   Ceiling: 10000
Heat Index: 42°   Visibility: 10mi
Dew Point: 42°   Wind: 5mph
Humidity: 100%   Direction: 90°E
Pressure: 29.36"   Gusts: NA
Location:  57.78°N, 135.22°W
Report Text: PAOH 211156Z AUTO 09004KT 10SM SCT046 BKN100 06/06 A2936 RMK AO2 TSNO 58011 70010 T00550055 10055 20016 SLP943 $
Loading
Personal Weather Stations






























Interactive Weather Map
Tropical Storm Tracking
New forecast layout! Learn more

10-Day Weather Forecast

Advertisements
Track Severe Weather on mobile